sensor_id;sensor_type;location;lat;lon;timestamp;pressure;altitude;pressure_sealevel;temperature;humidity
61035;BME280;46916;40.564;-7.958;2023-02-14T00:00:44;98385.72;;;10.83;52.63
61035;BME280;46916;40.564;-7.958;2023-02-14T00:02:44;98389.16;;;10.83;52.76
61035;BME280;46916;40.564;-7.958;2023-02-14T00:04:45;98380.56;;;10.81;52.80
61035;BME280;46916;40.564;-7.958;2023-02-14T00:06:47;98375.75;;;10.75;52.37
61035;BME280;46916;40.564;-7.958;2023-02-14T00:08:48;98382.88;;;10.73;52.66
61035;BME280;46916;40.564;-7.958;2023-02-14T00:10:51;98375.47;;;10.67;52.58
61035;BME280;46916;40.564;-7.958;2023-02-14T00:12:52;98373.69;;;10.68;52.81
61035;BME280;46916;40.564;-7.958;2023-02-14T00:14:52;98371.81;;;10.70;52.53
61035;BME280;46916;40.564;-7.958;2023-02-14T00:17:12;98374.19;;;10.73;52.48
61035;BME280;46916;40.564;-7.958;2023-02-14T00:19:18;98376.81;;;10.73;52.76
61035;BME280;46916;40.564;-7.958;2023-02-14T00:21:18;98370.72;;;10.72;52.71
61035;BME280;46916;40.564;-7.958;2023-02-14T00:23:19;98378.72;;;10.71;52.84
61035;BME280;46916;40.564;-7.958;2023-02-14T00:25:20;98371.06;;;10.68;52.53
61035;BME280;46916;40.564;-7.958;2023-02-14T00:27:20;98365.81;;;10.68;52.34
61035;BME280;46916;40.564;-7.958;2023-02-14T00:29:27;98367.09;;;10.62;52.46
61035;BME280;46916;40.564;-7.958;2023-02-14T00:31:28;98364.69;;;10.59;52.86
61035;BME280;46916;40.564;-7.958;2023-02-14T00:33:29;98374.31;;;10.58;53.23
61035;BME280;46916;40.564;-7.958;2023-02-14T00:35:30;98365.72;;;10.56;53.02
61035;BME280;46916;40.564;-7.958;2023-02-14T00:37:31;98369.09;;;10.58;52.87
61035;BME280;46916;40.564;-7.958;2023-02-14T00:39:31;98363.63;;;10.61;52.70
61035;BME280;46916;40.564;-7.958;2023-02-14T00:41:32;98359.00;;;10.65;52.45
61035;BME280;46916;40.564;-7.958;2023-02-14T00:43:33;98371.69;;;10.71;52.49
61035;BME280;46916;40.564;-7.958;2023-02-14T00:45:33;98364.44;;;10.75;51.98
61035;BME280;46916;40.564;-7.958;2023-02-14T00:47:34;98357.41;;;10.75;51.84
61035;BME280;46916;40.564;-7.958;2023-02-14T00:49:35;98350.41;;;10.76;51.99
61035;BME280;46916;40.564;-7.958;2023-02-14T00:51:35;98357.41;;;10.75;51.93
61035;BME280;46916;40.564;-7.958;2023-02-14T00:53:36;98353.00;;;10.76;52.05
61035;BME280;46916;40.564;-7.958;2023-02-14T00:55:39;98352.06;;;10.77;51.72
61035;BME280;46916;40.564;-7.958;2023-02-14T00:57:40;98355.63;;;10.76;51.88
61035;BME280;46916;40.564;-7.958;2023-02-14T00:59:40;98351.22;;;10.76;51.89
61035;BME280;46916;40.564;-7.958;2023-02-14T01:01:41;98347.06;;;10.74;52.61
61035;BME280;46916;40.564;-7.958;2023-02-14T01:03:43;98344.66;;;10.71;52.20
61035;BME280;46916;40.564;-7.958;2023-02-14T01:05:46;98341.53;;;10.65;52.60
61035;BME280;46916;40.564;-7.958;2023-02-14T01:07:46;98346.03;;;10.63;52.30
61035;BME280;46916;40.564;-7.958;2023-02-14T01:09:47;98334.06;;;10.59;52.47
61035;BME280;46916;40.564;-7.958;2023-02-14T01:11:48;98335.97;;;10.57;52.64
61035;BME280;46916;40.564;-7.958;2023-02-14T01:13:49;98336.81;;;10.58;53.08
61035;BME280;46916;40.564;-7.958;2023-02-14T01:15:51;98335.13;;;10.57;52.58
61035;BME280;46916;40.564;-7.958;2023-02-14T01:17:51;98340.16;;;10.60;52.80
61035;BME280;46916;40.564;-7.958;2023-02-14T01:19:54;98336.59;;;10.61;52.48
61035;BME280;46916;40.564;-7.958;2023-02-14T01:21:57;98326.22;;;10.59;52.80
61035;BME280;46916;40.564;-7.958;2023-02-14T01:24:00;98329.88;;;10.57;52.79
61035;BME280;46916;40.564;-7.958;2023-02-14T01:26:05;98335.25;;;10.55;53.14
61035;BME280;46916;40.564;-7.958;2023-02-14T01:28:06;98331.78;;;10.55;52.75
61035;BME280;46916;40.564;-7.958;2023-02-14T01:30:07;98333.66;;;10.53;53.04
61035;BME280;46916;40.564;-7.958;2023-02-14T01:32:08;98337.34;;;10.50;53.38
61035;BME280;46916;40.564;-7.958;2023-02-14T01:34:09;98335.78;;;10.48;53.66
61035;BME280;46916;40.564;-7.958;2023-02-14T01:36:20;98328.13;;;10.45;53.57
61035;BME280;46916;40.564;-7.958;2023-02-14T01:38:21;98330.16;;;10.41;53.76
61035;BME280;46916;40.564;-7.958;2023-02-14T01:40:22;98329.72;;;10.34;53.89
61035;BME280;46916;40.564;-7.958;2023-02-14T01:42:23;98325.53;;;10.32;54.02
61035;BME280;46916;40.564;-7.958;2023-02-14T01:46:27;98329.41;;;10.26;54.71
61035;BME280;46916;40.564;-7.958;2023-02-14T01:48:28;98325.00;;;10.27;54.33
61035;BME280;46916;40.564;-7.958;2023-02-14T01:50:33;98322.38;;;10.27;54.45
61035;BME280;46916;40.564;-7.958;2023-02-14T01:52:42;98318.00;;;10.27;54.34
61035;BME280;46916;40.564;-7.958;2023-02-14T01:55:00;98322.28;;;10.28;54.52
61035;BME280;46916;40.564;-7.958;2023-02-14T01:57:05;98321.56;;;10.26;54.01
61035;BME280;46916;40.564;-7.958;2023-02-14T01:59:09;98314.53;;;10.27;54.05
61035;BME280;46916;40.564;-7.958;2023-02-14T02:01:12;98310.25;;;10.26;54.41
61035;BME280;46916;40.564;-7.958;2023-02-14T02:03:15;98304.06;;;10.27;54.22
61035;BME280;46916;40.564;-7.958;2023-02-14T02:05:17;98303.13;;;10.28;53.92
61035;BME280;46916;40.564;-7.958;2023-02-14T02:07:25;98305.72;;;10.28;53.86
61035;BME280;46916;40.564;-7.958;2023-02-14T02:09:36;98309.09;;;10.30;53.95
61035;BME280;46916;40.564;-7.958;2023-02-14T02:11:41;98303.84;;;10.30;53.88
61035;BME280;46916;40.564;-7.958;2023-02-14T02:13:42;98302.06;;;10.30;53.74
61035;BME280;46916;40.564;-7.958;2023-02-14T02:15:51;98305.66;;;10.29;53.77
61035;BME280;46916;40.564;-7.958;2023-02-14T02:18:06;98308.25;;;10.29;54.05
61035;BME280;46916;40.564;-7.958;2023-02-14T02:20:32;98307.50;;;10.27;54.22
61035;BME280;46916;40.564;-7.958;2023-02-14T02:29:52;98292.75;;;10.13;54.24
61035;BME280;46916;40.564;-7.958;2023-02-14T02:39:24;98301.00;;;10.07;54.74
61035;BME280;46916;40.564;-7.958;2023-02-14T02:48:24;98296.00;;;10.04;55.34
61035;BME280;46916;40.564;-7.958;2023-02-14T02:50:35;98296.09;;;10.03;55.02
61035;BME280;46916;40.564;-7.958;2023-02-14T02:53:06;98295.13;;;10.04;55.53
61035;BME280;46916;40.564;-7.958;2023-02-14T02:55:24;98288.22;;;10.03;55.15
61035;BME280;46916;40.564;-7.958;2023-02-14T02:57:33;98290.97;;;10.01;55.11
61035;BME280;46916;40.564;-7.958;2023-02-14T02:59:38;98290.22;;;9.99;55.10
61035;BME280;46916;40.564;-7.958;2023-02-14T03:01:40;98285.00;;;9.99;55.34
61035;BME280;46916;40.564;-7.958;2023-02-14T03:03:44;98282.59;;;9.96;55.18
61035;BME280;46916;40.564;-7.958;2023-02-14T03:06:04;98281.84;;;9.94;55.64
61035;BME280;46916;40.564;-7.958;2023-02-14T03:08:05;98287.84;;;9.96;55.75
61035;BME280;46916;40.564;-7.958;2023-02-14T03:10:08;98279.03;;;9.97;55.66
61035;BME280;46916;40.564;-7.958;2023-02-14T03:14:40;98277.06;;;10.01;55.51
61035;BME280;46916;40.564;-7.958;2023-02-14T03:17:24;98271.06;;;9.99;55.41
61035;BME280;46916;40.564;-7.958;2023-02-14T03:22:59;98269.09;;;10.02;55.65
61035;BME280;46916;40.564;-7.958;2023-02-14T03:27:51;98258.91;;;10.10;55.43
61035;BME280;46916;40.564;-7.958;2023-02-14T03:34:31;98259.34;;;10.17;55.18
61035;BME280;46916;40.564;-7.958;2023-02-14T03:41:04;98247.00;;;10.06;54.91
61035;BME280;46916;40.564;-7.958;2023-02-14T03:43:09;98237.47;;;10.05;55.36
61035;BME280;46916;40.564;-7.958;2023-02-14T03:45:17;98232.25;;;10.05;55.56
61035;BME280;46916;40.564;-7.958;2023-02-14T03:47:22;98229.63;;;10.05;55.47
61035;BME280;46916;40.564;-7.958;2023-02-14T03:49:29;98239.03;;;10.08;55.39
61035;BME280;46916;40.564;-7.958;2023-02-14T03:51:32;98240.09;;;10.05;55.64
61035;BME280;46916;40.564;-7.958;2023-02-14T03:53:35;98239.13;;;10.06;55.78
61035;BME280;46916;40.564;-7.958;2023-02-14T03:55:52;98238.09;;;10.09;55.74
61035;BME280;46916;40.564;-7.958;2023-02-14T03:58:02;98232.75;;;10.10;55.90
61035;BME280;46916;40.564;-7.958;2023-02-14T04:00:06;98228.47;;;10.09;55.67
61035;BME280;46916;40.564;-7.958;2023-02-14T04:04:30;98228.47;;;10.09;55.96
61035;BME280;46916;40.564;-7.958;2023-02-14T04:06:32;98231.41;;;10.05;55.86
61035;BME280;46916;40.564;-7.958;2023-02-14T04:08:32;98227.94;;;10.04;55.78
61035;BME280;46916;40.564;-7.958;2023-02-14T04:10:33;98224.59;;;10.02;55.96
61035;BME280;46916;40.564;-7.958;2023-02-14T04:12:34;98221.34;;;9.99;56.12
61035;BME280;46916;40.564;-7.958;2023-02-14T04:14:35;98222.19;;;9.99;55.81
61035;BME280;46916;40.564;-7.958;2023-02-14T04:16:36;98234.44;;;9.99;56.05
61035;BME280;46916;40.564;-7.958;2023-02-14T04:18:55;98226.38;;;10.02;55.85
61035;BME280;46916;40.564;-7.958;2023-02-14T04:21:15;98222.72;;;10.04;55.81
61035;BME280;46916;40.564;-7.958;2023-02-14T04:23:16;98215.78;;;10.03;55.67
61035;BME280;46916;40.564;-7.958;2023-02-14T04:25:18;98216.75;;;10.02;56.04
61035;BME280;46916;40.564;-7.958;2023-02-14T04:27:19;98224.59;;;10.02;56.14
61035;BME280;46916;40.564;-7.958;2023-02-14T04:29:19;98229.81;;;10.02;56.05
61035;BME280;46916;40.564;-7.958;2023-02-14T04:31:20;98227.09;;;10.04;56.16
61035;BME280;46916;40.564;-7.958;2023-02-14T04:33:21;98225.44;;;10.03;56.10
61035;BME280;46916;40.564;-7.958;2023-02-14T04:35:22;98230.56;;;10.04;56.29
61035;BME280;46916;40.564;-7.958;2023-02-14T04:37:22;98230.03;;;9.99;56.14
61035;BME280;46916;40.564;-7.958;2023-02-14T04:39:23;98226.06;;;9.93;56.66
61035;BME280;46916;40.564;-7.958;2023-02-14T04:41:24;98223.56;;;9.92;56.53
61035;BME280;46916;40.564;-7.958;2023-02-14T04:43:24;98220.22;;;9.90;56.73
61035;BME280;46916;40.564;-7.958;2023-02-14T04:45:25;98219.38;;;9.89;56.59
61035;BME280;46916;40.564;-7.958;2023-02-14T04:47:26;98214.97;;;9.90;56.62
61035;BME280;46916;40.564;-7.958;2023-02-14T04:49:26;98211.19;;;9.94;56.85
61035;BME280;46916;40.564;-7.958;2023-02-14T04:51:27;98214.56;;;9.96;56.75
61035;BME280;46916;40.564;-7.958;2023-02-14T04:53:28;98222.28;;;9.98;56.38
61035;BME280;46916;40.564;-7.958;2023-02-14T04:55:29;98227.53;;;9.98;56.47
61035;BME280;46916;40.564;-7.958;2023-02-14T04:57:30;98224.91;;;9.98;56.01
61035;BME280;46916;40.564;-7.958;2023-02-14T04:59:30;98222.72;;;9.91;56.45
61035;BME280;46916;40.564;-7.958;2023-02-14T05:01:31;98223.78;;;9.89;56.61
61035;BME280;46916;40.564;-7.958;2023-02-14T05:03:32;98222.41;;;9.83;56.74
61035;BME280;46916;40.564;-7.958;2023-02-14T05:05:32;98216.78;;;9.77;56.81
61035;BME280;46916;40.564;-7.958;2023-02-14T05:07:33;98217.94;;;9.73;57.20
61035;BME280;46916;40.564;-7.958;2023-02-14T05:09:34;98216.25;;;9.72;57.15
61035;BME280;46916;40.564;-7.958;2023-02-14T05:11:35;98223.56;;;9.66;57.22
61035;BME280;46916;40.564;-7.958;2023-02-14T05:13:35;98218.56;;;9.63;57.24
61035;BME280;46916;40.564;-7.958;2023-02-14T05:15:36;98218.66;;;9.62;57.48
61035;BME280;46916;40.564;-7.958;2023-02-14T05:17:37;98215.00;;;9.64;57.69
61035;BME280;46916;40.564;-7.958;2023-02-14T05:19:37;98212.91;;;9.70;57.70
61035;BME280;46916;40.564;-7.958;2023-02-14T05:21:38;98216.25;;;9.72;57.69
61035;BME280;46916;40.564;-7.958;2023-02-14T05:23:39;98217.94;;;9.73;57.59
61035;BME280;46916;40.564;-7.958;2023-02-14T05:25:40;98215.31;;;9.73;57.71
61035;BME280;46916;40.564;-7.958;2023-02-14T05:27:40;98215.09;;;9.76;57.82
61035;BME280;46916;40.564;-7.958;2023-02-14T05:29:41;98215.00;;;9.77;57.38
61035;BME280;46916;40.564;-7.958;2023-02-14T05:31:42;98215.72;;;9.79;57.22
61035;BME280;46916;40.564;-7.958;2023-02-14T05:33:42;98204.53;;;9.77;57.15
61035;BME280;46916;40.564;-7.958;2023-02-14T05:35:43;98211.44;;;9.78;57.22
61035;BME280;46916;40.564;-7.958;2023-02-14T05:37:44;98207.97;;;9.78;57.60
61035;BME280;46916;40.564;-7.958;2023-02-14T05:39:45;98207.16;;;9.77;57.63
61035;BME280;46916;40.564;-7.958;2023-02-14T05:41:45;98203.47;;;9.67;57.52
61035;BME280;46916;40.564;-7.958;2023-02-14T05:43:46;98203.69;;;9.64;57.58
61035;BME280;46916;40.564;-7.958;2023-02-14T05:45:47;98203.06;;;9.60;57.81
61035;BME280;46916;40.564;-7.958;2023-02-14T05:47:49;98194.41;;;9.60;58.05
61035;BME280;46916;40.564;-7.958;2023-02-14T05:49:49;98197.09;;;9.58;57.98
61035;BME280;46916;40.564;-7.958;2023-02-14T05:51:50;98197.31;;;9.55;58.09
61035;BME280;46916;40.564;-7.958;2023-02-14T05:53:51;98199.06;;;9.55;57.98
61035;BME280;46916;40.564;-7.958;2023-02-14T05:55:51;98192.94;;;9.56;58.17
61035;BME280;46916;40.564;-7.958;2023-02-14T05:57:52;98189.47;;;9.55;58.32
61035;BME280;46916;40.564;-7.958;2023-02-14T05:59:53;98191.88;;;9.58;58.23
61035;BME280;46916;40.564;-7.958;2023-02-14T06:01:53;98193.00;;;9.54;58.47
61035;BME280;46916;40.564;-7.958;2023-02-14T06:03:54;98186.94;;;9.54;58.33
61035;BME280;46916;40.564;-7.958;2023-02-14T06:05:54;98187.47;;;9.59;58.06
61035;BME280;46916;40.564;-7.958;2023-02-14T06:07:55;98187.59;;;9.57;58.39
61035;BME280;46916;40.564;-7.958;2023-02-14T06:09:56;98182.34;;;9.57;58.16
61035;BME280;46916;40.564;-7.958;2023-02-14T06:11:56;98188.53;;;9.56;58.04
61035;BME280;46916;40.564;-7.958;2023-02-14T06:13:58;98184.84;;;9.59;58.22
61035;BME280;46916;40.564;-7.958;2023-02-14T06:15:59;98189.25;;;9.58;58.20
61035;BME280;46916;40.564;-7.958;2023-02-14T06:17:59;98185.91;;;9.56;58.48
61035;BME280;46916;40.564;-7.958;2023-02-14T06:20:00;98191.34;;;9.53;58.64
61035;BME280;46916;40.564;-7.958;2023-02-14T06:22:01;98203.47;;;9.54;59.01
61035;BME280;46916;40.564;-7.958;2023-02-14T06:24:02;98193.66;;;9.58;59.14
61035;BME280;46916;40.564;-7.958;2023-02-14T06:26:03;98193.56;;;9.59;59.29
61035;BME280;46916;40.564;-7.958;2023-02-14T06:28:04;98199.72;;;9.58;59.68
61035;BME280;46916;40.564;-7.958;2023-02-14T06:30:05;98200.25;;;9.63;59.29
61035;BME280;46916;40.564;-7.958;2023-02-14T06:32:06;98200.25;;;9.63;59.39
61035;BME280;46916;40.564;-7.958;2023-02-14T06:34:06;98197.63;;;9.63;59.37
61035;BME280;46916;40.564;-7.958;2023-02-14T06:36:07;98198.34;;;9.65;59.47
61035;BME280;46916;40.564;-7.958;2023-02-14T06:38:08;98197.72;;;9.62;59.03
61035;BME280;46916;40.564;-7.958;2023-02-14T06:40:09;98190.94;;;9.59;59.23
61035;BME280;46916;40.564;-7.958;2023-02-14T06:42:10;98192.94;;;9.56;59.32
61035;BME280;46916;40.564;-7.958;2023-02-14T06:44:11;98191.34;;;9.53;59.23
61035;BME280;46916;40.564;-7.958;2023-02-14T06:46:11;98194.41;;;9.47;59.10
61035;BME280;46916;40.564;-7.958;2023-02-14T06:48:12;98202.44;;;9.44;59.44
61035;BME280;46916;40.564;-7.958;2023-02-14T06:50:13;98194.69;;;9.42;59.45
61035;BME280;46916;40.564;-7.958;2023-02-14T06:52:14;98194.78;;;9.41;59.36
61035;BME280;46916;40.564;-7.958;2023-02-14T06:54:14;98188.63;;;9.42;59.39
61035;BME280;46916;40.564;-7.958;2023-02-14T06:56:15;98191.34;;;9.40;59.41
61035;BME280;46916;40.564;-7.958;2023-02-14T06:58:16;98189.69;;;9.39;59.74
61035;BME280;46916;40.564;-7.958;2023-02-14T07:00:17;98176.81;;;9.36;59.66
61035;BME280;46916;40.564;-7.958;2023-02-14T07:02:18;98181.72;;;9.28;59.82
61035;BME280;46916;40.564;-7.958;2023-02-14T07:04:19;98186.00;;;9.29;59.90
61035;BME280;46916;40.564;-7.958;2023-02-14T07:06:19;98182.97;;;9.23;60.13
61035;BME280;46916;40.564;-7.958;2023-02-14T07:08:20;98185.47;;;9.24;60.09
61035;BME280;46916;40.564;-7.958;2023-02-14T07:10:21;98189.69;;;9.27;59.91
61035;BME280;46916;40.564;-7.958;2023-02-14T07:12:22;98181.09;;;9.25;60.06
61035;BME280;46916;40.564;-7.958;2023-02-14T07:14:25;98186.94;;;9.28;59.93
61035;BME280;46916;40.564;-7.958;2023-02-14T07:16:26;98186.53;;;9.34;59.86
61035;BME280;46916;40.564;-7.958;2023-02-14T07:18:27;98186.31;;;9.37;60.11
61035;BME280;46916;40.564;-7.958;2023-02-14T07:20:28;98198.25;;;9.41;59.86
61035;BME280;46916;40.564;-7.958;2023-02-14T07:22:28;98192.94;;;9.43;59.65
61035;BME280;46916;40.564;-7.958;2023-02-14T07:24:29;98199.06;;;9.42;59.79
61035;BME280;46916;40.564;-7.958;2023-02-14T07:26:29;98198.25;;;9.41;59.68
61035;BME280;46916;40.564;-7.958;2023-02-14T07:28:30;98204.09;;;9.45;59.67
61035;BME280;46916;40.564;-7.958;2023-02-14T07:30:32;98204.09;;;9.45;59.80
61035;BME280;46916;40.564;-7.958;2023-02-14T07:32:33;98193.97;;;9.40;60.02
61035;BME280;46916;40.564;-7.958;2023-02-14T07:34:34;98190.50;;;9.40;60.22
61035;BME280;46916;40.564;-7.958;2023-02-14T07:36:36;98201.69;;;9.42;60.11
61035;BME280;46916;40.564;-7.958;2023-02-14T07:38:38;98200.03;;;9.41;59.87
61035;BME280;46916;40.564;-7.958;2023-02-14T07:40:38;98211.13;;;9.45;60.22
61035;BME280;46916;40.564;-7.958;2023-02-14T07:42:39;98214.56;;;9.45;59.97
61035;BME280;46916;40.564;-7.958;2023-02-14T07:44:40;98217.69;;;9.50;60.06
61035;BME280;46916;40.564;-7.958;2023-02-14T07:46:41;98214.75;;;9.55;59.65
61035;BME280;46916;40.564;-7.958;2023-02-14T07:48:42;98215.50;;;9.57;59.56
61035;BME280;46916;40.564;-7.958;2023-02-14T07:50:43;98214.88;;;9.53;59.79
61035;BME280;46916;40.564;-7.958;2023-02-14T07:52:44;98212.16;;;9.55;59.79
61035;BME280;46916;40.564;-7.958;2023-02-14T07:54:44;98215.50;;;9.57;59.46
61035;BME280;46916;40.564;-7.958;2023-02-14T07:56:45;98211.00;;;9.59;59.44
61035;BME280;46916;40.564;-7.958;2023-02-14T07:58:46;98215.94;;;9.63;59.77
61035;BME280;46916;40.564;-7.958;2023-02-14T08:00:47;98211.44;;;9.65;59.79
61035;BME280;46916;40.564;-7.958;2023-02-14T08:02:47;98216.53;;;9.67;59.75
61035;BME280;46916;40.564;-7.958;2023-02-14T08:04:48;98217.63;;;9.64;59.45
61035;BME280;46916;40.564;-7.958;2023-02-14T08:06:49;98220.53;;;9.60;59.71
61035;BME280;46916;40.564;-7.958;2023-02-14T08:08:50;98223.56;;;9.54;60.23
61035;BME280;46916;40.564;-7.958;2023-02-14T08:10:50;98221.16;;;9.51;60.59
61035;BME280;46916;40.564;-7.958;2023-02-14T08:12:51;98224.00;;;9.60;60.35
61035;BME280;46916;40.564;-7.958;2023-02-14T08:14:58;98217.09;;;9.85;60.28
61035;BME280;46916;40.564;-7.958;2023-02-14T08:17:18;98218.50;;;10.14;59.65
61035;BME280;46916;40.564;-7.958;2023-02-14T08:19:19;98208.22;;;10.37;58.65
61035;BME280;46916;40.564;-7.958;2023-02-14T08:21:20;98215.25;;;10.60;58.15
61035;BME280;46916;40.564;-7.958;2023-02-14T08:23:20;98208.34;;;10.83;57.61
61035;BME280;46916;40.564;-7.958;2023-02-14T08:25:21;98204.88;;;11.07;57.21
61035;BME280;46916;40.564;-7.958;2023-02-14T08:27:22;98201.47;;;11.29;56.31
61035;BME280;46916;40.564;-7.958;2023-02-14T08:29:22;98208.06;;;11.46;56.09
61035;BME280;46916;40.564;-7.958;2023-02-14T08:31:26;98206.78;;;11.62;55.86
61035;BME280;46916;40.564;-7.958;2023-02-14T08:33:27;98214.31;;;11.78;55.45
61035;BME280;46916;40.564;-7.958;2023-02-14T08:35:28;98210.16;;;11.87;54.81
61035;BME280;46916;40.564;-7.958;2023-02-14T08:37:28;98206.72;;;11.98;55.25
61035;BME280;46916;40.564;-7.958;2023-02-14T08:39:29;98211.38;;;12.05;55.75
61035;BME280;46916;40.564;-7.958;2023-02-14T08:41:30;98209.09;;;12.12;55.77
61035;BME280;46916;40.564;-7.958;2023-02-14T08:43:30;98210.50;;;12.16;55.47
61035;BME280;46916;40.564;-7.958;2023-02-14T08:45:31;98211.00;;;12.21;55.13
61035;BME280;46916;40.564;-7.958;2023-02-14T08:47:32;98204.66;;;12.24;54.69
61035;BME280;46916;40.564;-7.958;2023-02-14T08:49:37;98208.13;;;12.24;54.54
61035;BME280;46916;40.564;-7.958;2023-02-14T08:51:38;98209.31;;;12.20;53.86
61035;BME280;46916;40.564;-7.958;2023-02-14T08:53:40;98214.09;;;12.26;54.30
61035;BME280;46916;40.564;-7.958;2023-02-14T08:55:41;98223.63;;;12.38;54.01
61035;BME280;46916;40.564;-7.958;2023-02-14T08:57:42;98233.53;;;12.46;54.36
61035;BME280;46916;40.564;-7.958;2023-02-14T08:59:43;98222.06;;;12.47;54.75
61035;BME280;46916;40.564;-7.958;2023-02-14T09:01:44;98220.16;;;12.49;54.82
61035;BME280;46916;40.564;-7.958;2023-02-14T09:03:45;98227.09;;;12.50;54.94
61035;BME280;46916;40.564;-7.958;2023-02-14T09:05:46;98223.94;;;12.56;54.57
61035;BME280;46916;40.564;-7.958;2023-02-14T09:07:47;98219.28;;;12.60;54.48
61035;BME280;46916;40.564;-7.958;2023-02-14T09:09:49;98224.19;;;12.64;54.37
61035;BME280;46916;40.564;-7.958;2023-02-14T09:11:49;98226.09;;;12.74;54.45
61035;BME280;46916;40.564;-7.958;2023-02-14T09:13:52;98219.25;;;12.82;53.94
61035;BME280;46916;40.564;-7.958;2023-02-14T09:15:53;98214.31;;;12.89;53.66
61035;BME280;46916;40.564;-7.958;2023-02-14T09:17:54;98210.59;;;12.92;53.85
61035;BME280;46916;40.564;-7.958;2023-02-14T09:19:55;98206.75;;;12.96;53.55
61035;BME280;46916;40.564;-7.958;2023-02-14T09:21:56;98210.66;;;13.01;53.38
61035;BME280;46916;40.564;-7.958;2023-02-14T09:23:57;98209.22;;;13.08;53.26
61035;BME280;46916;40.564;-7.958;2023-02-14T09:26:00;98208.19;;;13.21;53.30
61035;BME280;46916;40.564;-7.958;2023-02-14T09:28:01;98198.34;;;13.34;52.65
61035;BME280;46916;40.564;-7.958;2023-02-14T09:30:04;98199.94;;;13.46;52.51
61035;BME280;46916;40.564;-7.958;2023-02-14T09:32:05;98203.34;;;13.58;51.91
61035;BME280;46916;40.564;-7.958;2023-02-14T09:34:06;98202.84;;;13.64;51.69
61035;BME280;46916;40.564;-7.958;2023-02-14T09:36:25;98202.19;;;13.72;51.72
61035;BME280;46916;40.564;-7.958;2023-02-14T09:38:26;98204.44;;;13.76;51.85
61035;BME280;46916;40.564;-7.958;2023-02-14T09:40:26;98205.09;;;13.69;51.84
61035;BME280;46916;40.564;-7.958;2023-02-14T09:44:45;98205.22;;;13.46;52.23
61035;BME280;46916;40.564;-7.958;2023-02-14T09:46:51;98207.16;;;13.44;52.57
61035;BME280;46916;40.564;-7.958;2023-02-14T09:48:53;98204.53;;;13.44;52.38
61035;BME280;46916;40.564;-7.958;2023-02-14T09:50:57;98203.41;;;13.47;52.66
61035;BME280;46916;40.564;-7.958;2023-02-14T09:53:11;98195.84;;;13.53;52.51
61035;BME280;46916;40.564;-7.958;2023-02-14T09:55:16;98207.97;;;13.66;52.50
61035;BME280;46916;40.564;-7.958;2023-02-14T10:01:48;98203.25;;;13.90;52.15
61035;BME280;46916;40.564;-7.958;2023-02-14T10:04:05;98210.63;;;13.96;51.90
61035;BME280;46916;40.564;-7.958;2023-02-14T10:11:17;98206.13;;;14.18;51.88
61035;BME280;46916;40.564;-7.958;2023-02-14T10:13:51;98218.34;;;14.28;51.47
61035;BME280;46916;40.564;-7.958;2023-02-14T10:16:07;98210.06;;;14.33;51.71
61035;BME280;46916;40.564;-7.958;2023-02-14T10:22:52;98197.50;;;14.56;51.21
61035;BME280;46916;40.564;-7.958;2023-02-14T10:25:02;98203.91;;;14.63;50.47
61035;BME280;46916;40.564;-7.958;2023-02-14T10:29:25;98209.34;;;14.71;49.89
61035;BME280;46916;40.564;-7.958;2023-02-14T10:31:52;98211.28;;;14.79;49.72
61035;BME280;46916;40.564;-7.958;2023-02-14T10:34:28;98207.69;;;14.90;49.55
61035;BME280;46916;40.564;-7.958;2023-02-14T10:48:01;98194.19;;;15.41;48.39
61035;BME280;46916;40.564;-7.958;2023-02-14T10:54:21;98185.16;;;15.34;47.37
61035;BME280;46916;40.564;-7.958;2023-02-14T10:56:45;98184.63;;;15.40;47.49
61035;BME280;46916;40.564;-7.958;2023-02-14T10:58:48;98183.75;;;15.49;47.54
61035;BME280;46916;40.564;-7.958;2023-02-14T11:01:00;98178.59;;;15.57;47.80
61035;BME280;46916;40.564;-7.958;2023-02-14T11:03:07;98182.78;;;15.60;47.10
61035;BME280;46916;40.564;-7.958;2023-02-14T11:05:24;98183.75;;;15.69;47.36
61035;BME280;46916;40.564;-7.958;2023-02-14T11:07:26;98189.41;;;15.74;46.16
61035;BME280;46916;40.564;-7.958;2023-02-14T11:09:28;98183.97;;;15.75;46.43
61035;BME280;46916;40.564;-7.958;2023-02-14T11:11:37;98174.94;;;15.78;46.35
61035;BME280;46916;40.564;-7.958;2023-02-14T11:13:41;98178.69;;;15.85;46.41
61035;BME280;46916;40.564;-7.958;2023-02-14T11:15:45;98175.31;;;15.93;46.20
61035;BME280;46916;40.564;-7.958;2023-02-14T11:18:27;98164.59;;;15.94;45.83
61035;BME280;46916;40.564;-7.958;2023-02-14T11:20:32;98160.94;;;16.05;46.04
61035;BME280;46916;40.564;-7.958;2023-02-14T11:22:33;98163.28;;;16.08;45.44
61035;BME280;46916;40.564;-7.958;2023-02-14T11:24:37;98155.22;;;16.09;45.19
61035;BME280;46916;40.564;-7.958;2023-02-14T11:26:44;98157.72;;;16.11;45.43
61035;BME280;46916;40.564;-7.958;2023-02-14T11:29:02;98154.63;;;16.16;44.80
61035;BME280;46916;40.564;-7.958;2023-02-14T11:31:03;98148.38;;;16.17;45.09
61035;BME280;46916;40.564;-7.958;2023-02-14T11:33:06;98146.69;;;16.16;44.42
61035;BME280;46916;40.564;-7.958;2023-02-14T11:35:17;98146.16;;;16.12;44.67
61035;BME280;46916;40.564;-7.958;2023-02-14T11:39:32;98142.56;;;16.13;45.18
61035;BME280;46916;40.564;-7.958;2023-02-14T11:41:52;98138.63;;;16.17;44.99
61035;BME280;46916;40.564;-7.958;2023-02-14T11:44:13;98137.09;;;16.15;44.75
61035;BME280;46916;40.564;-7.958;2023-02-14T11:46:25;98132.28;;;16.10;45.13
61035;BME280;46916;40.564;-7.958;2023-02-14T11:48:27;98130.28;;;16.12;44.89
61035;BME280;46916;40.564;-7.958;2023-02-14T11:50:28;98122.38;;;16.12;44.63
61035;BME280;46916;40.564;-7.958;2023-02-14T11:52:29;98120.72;;;16.11;44.43
61035;BME280;46916;40.564;-7.958;2023-02-14T11:54:39;98117.69;;;16.06;44.12
61035;BME280;46916;40.564;-7.958;2023-02-14T11:56:52;98116.88;;;16.05;44.62
61035;BME280;46916;40.564;-7.958;2023-02-14T11:58:58;98119.78;;;16.02;44.93
61035;BME280;46916;40.564;-7.958;2023-02-14T12:01:00;98106.88;;;15.99;44.62
61035;BME280;46916;40.564;-7.958;2023-02-14T12:03:04;98099.16;;;15.88;44.88
61035;BME280;46916;40.564;-7.958;2023-02-14T12:05:20;98090.53;;;15.86;45.10
61035;BME280;46916;40.564;-7.958;2023-02-14T12:07:35;98087.59;;;15.89;45.15
61035;BME280;46916;40.564;-7.958;2023-02-14T12:09:36;98088.81;;;15.95;44.90